sensor_id;sensor_type;location;lat;lon;timestamp;P1;durP1;ratioP1;P2;durP2;ratioP2
22644;SDS011;11489;50.834;6.752;2024-03-23T00:51:59;25.15;;;8.52;;
22644;SDS011;11489;50.834;6.752;2024-03-23T00:54:25;26.50;;;9.98;;
22644;SDS011;11489;50.834;6.752;2024-03-23T00:56:50;23.35;;;9.75;;
22644;SDS011;11489;50.834;6.752;2024-03-23T00:59:16;24.38;;;9.20;;
22644;SDS011;11489;50.834;6.752;2024-03-23T01:01:42;21.42;;;9.20;;
22644;SDS011;11489;50.834;6.752;2024-03-23T01:04:07;23.80;;;9.45;;
22644;SDS011;11489;50.834;6.752;2024-03-23T01:06:33;26.75;;;9.50;;
22644;SDS011;11489;50.834;6.752;2024-03-23T01:08:59;27.08;;;9.48;;
22644;SDS011;11489;50.834;6.752;2024-03-23T01:11:24;22.77;;;9.15;;
22644;SDS011;11489;50.834;6.752;2024-03-23T01:13:50;23.75;;;9.02;;
22644;SDS011;11489;50.834;6.752;2024-03-23T01:16:16;19.23;;;8.75;;
22644;SDS011;11489;50.834;6.752;2024-03-23T01:18:41;26.90;;;8.98;;
22644;SDS011;11489;50.834;6.752;2024-03-23T01:21:07;23.30;;;8.98;;
22644;SDS011;11489;50.834;6.752;2024-03-23T01:23:33;20.40;;;8.50;;
22644;SDS011;11489;50.834;6.752;2024-03-23T01:25:58;19.33;;;8.85;;
22644;SDS011;11489;50.834;6.752;2024-03-23T01:28:24;20.42;;;8.05;;
22644;SDS011;11489;50.834;6.752;2024-03-23T01:30:50;19.60;;;7.65;;
22644;SDS011;11489;50.834;6.752;2024-03-23T01:33:15;15.15;;;7.22;;
22644;SDS011;11489;50.834;6.752;2024-03-23T01:35:41;16.85;;;6.88;;
22644;SDS011;11489;50.834;6.752;2024-03-23T01:38:07;16.58;;;6.78;;
22644;SDS011;11489;50.834;6.752;2024-03-23T01:40:32;12.77;;;5.22;;
22644;SDS011;11489;50.834;6.752;2024-03-23T01:42:58;11.13;;;4.47;;
22644;SDS011;11489;50.834;6.752;2024-03-23T01:45:29;8.07;;;4.38;;
22644;SDS011;11489;50.834;6.752;2024-03-23T01:47:55;7.38;;;4.05;;
22644;SDS011;11489;50.834;6.752;2024-03-23T01:50:22;8.80;;;4.70;;
22644;SDS011;11489;50.834;6.752;2024-03-23T01:52:49;6.63;;;3.03;;
22644;SDS011;11489;50.834;6.752;2024-03-23T01:55:15;5.97;;;3.20;;
22644;SDS011;11489;50.834;6.752;2024-03-23T01:57:41;8.52;;;3.20;;
22644;SDS011;11489;50.834;6.752;2024-03-23T02:00:07;9.60;;;3.10;;
22644;SDS011;11489;50.834;6.752;2024-03-23T02:02:34;8.35;;;3.85;;
22644;SDS011;11489;50.834;6.752;2024-03-23T02:05:00;8.70;;;3.97;;
22644;SDS011;11489;50.834;6.752;2024-03-23T02:07:27;12.07;;;3.90;;
22644;SDS011;11489;50.834;6.752;2024-03-23T02:09:52;10.57;;;4.28;;
22644;SDS011;11489;50.834;6.752;2024-03-23T02:12:18;10.43;;;3.42;;
22644;SDS011;11489;50.834;6.752;2024-03-23T02:14:46;7.07;;;2.92;;
22644;SDS011;11489;50.834;6.752;2024-03-23T02:17:12;13.75;;;3.45;;
22644;SDS011;11489;50.834;6.752;2024-03-23T02:19:38;13.55;;;2.95;;
22644;SDS011;11489;50.834;6.752;2024-03-23T02:22:04;13.30;;;3.30;;
22644;SDS011;11489;50.834;6.752;2024-03-23T02:24:29;8.77;;;2.30;;
22644;SDS011;11489;50.834;6.752;2024-03-23T02:26:55;10.77;;;2.67;;
22644;SDS011;11489;50.834;6.752;2024-03-23T02:29:21;5.85;;;2.05;;
22644;SDS011;11489;50.834;6.752;2024-03-23T02:31:47;10.65;;;2.65;;
22644;SDS011;11489;50.834;6.752;2024-03-23T02:34:13;11.70;;;2.50;;
22644;SDS011;11489;50.834;6.752;2024-03-23T02:36:38;8.73;;;2.47;;
22644;SDS011;11489;50.834;6.752;2024-03-23T02:39:04;6.45;;;2.50;;
22644;SDS011;11489;50.834;6.752;2024-03-23T02:41:30;5.55;;;2.13;;
22644;SDS011;11489;50.834;6.752;2024-03-23T02:43:55;7.30;;;2.50;;
22644;SDS011;11489;50.834;6.752;2024-03-23T02:46:21;12.63;;;2.47;;
22644;SDS011;11489;50.834;6.752;2024-03-23T02:48:50;6.43;;;2.50;;
22644;SDS011;11489;50.834;6.752;2024-03-23T02:51:16;7.15;;;2.53;;
22644;SDS011;11489;50.834;6.752;2024-03-23T02:53:41;13.50;;;3.03;;
22644;SDS011;11489;50.834;6.752;2024-03-23T02:56:07;9.48;;;2.47;;
22644;SDS011;11489;50.834;6.752;2024-03-23T02:58:33;10.73;;;2.83;;
22644;SDS011;11489;50.834;6.752;2024-03-23T03:00:59;11.68;;;2.42;;
22644;SDS011;11489;50.834;6.752;2024-03-23T03:03:24;12.00;;;2.38;;
22644;SDS011;11489;50.834;6.752;2024-03-23T03:05:56;12.38;;;2.25;;
22644;SDS011;11489;50.834;6.752;2024-03-23T03:08:22;7.30;;;2.08;;
22644;SDS011;11489;50.834;6.752;2024-03-23T03:10:47;8.48;;;1.90;;
22644;SDS011;11489;50.834;6.752;2024-03-23T03:13:13;8.15;;;2.22;;
22644;SDS011;11489;50.834;6.752;2024-03-23T03:15:40;8.80;;;1.95;;
22644;SDS011;11489;50.834;6.752;2024-03-23T03:18:06;13.60;;;2.20;;
22644;SDS011;11489;50.834;6.752;2024-03-23T03:20:32;5.05;;;1.77;;
22644;SDS011;11489;50.834;6.752;2024-03-23T03:22:57;7.90;;;1.95;;
22644;SDS011;11489;50.834;6.752;2024-03-23T03:25:24;14.75;;;2.65;;
22644;SDS011;11489;50.834;6.752;2024-03-23T03:27:49;5.72;;;2.20;;
22644;SDS011;11489;50.834;6.752;2024-03-23T03:30:15;10.70;;;2.72;;
22644;SDS011;11489;50.834;6.752;2024-03-23T03:32:41;10.85;;;3.10;;
22644;SDS011;11489;50.834;6.752;2024-03-23T03:35:07;7.47;;;2.55;;
22644;SDS011;11489;50.834;6.752;2024-03-23T03:37:33;9.18;;;2.25;;
22644;SDS011;11489;50.834;6.752;2024-03-23T03:39:59;8.30;;;2.00;;
22644;SDS011;11489;50.834;6.752;2024-03-23T03:42:25;12.73;;;2.10;;
22644;SDS011;11489;50.834;6.752;2024-03-23T03:44:50;8.73;;;2.15;;
22644;SDS011;11489;50.834;6.752;2024-03-23T03:47:17;6.45;;;2.10;;
22644;SDS011;11489;50.834;6.752;2024-03-23T03:49:43;8.00;;;1.75;;
22644;SDS011;11489;50.834;6.752;2024-03-23T03:52:09;8.60;;;1.65;;
22644;SDS011;11489;50.834;6.752;2024-03-23T03:54:34;7.15;;;1.67;;
22644;SDS011;11489;50.834;6.752;2024-03-23T03:57:00;5.05;;;1.75;;
22644;SDS011;11489;50.834;6.752;2024-03-23T03:59:26;7.97;;;1.67;;
22644;SDS011;11489;50.834;6.752;2024-03-23T04:01:51;8.43;;;2.15;;
22644;SDS011;11489;50.834;6.752;2024-03-23T04:04:17;6.68;;;2.13;;
22644;SDS011;11489;50.834;6.752;2024-03-23T04:06:43;7.70;;;1.52;;
22644;SDS011;11489;50.834;6.752;2024-03-23T04:09:09;9.20;;;1.83;;
22644;SDS011;11489;50.834;6.752;2024-03-23T04:11:35;7.95;;;1.70;;
22644;SDS011;11489;50.834;6.752;2024-03-23T04:14:01;10.50;;;2.10;;
22644;SDS011;11489;50.834;6.752;2024-03-23T04:16:33;6.35;;;1.65;;
22644;SDS011;11489;50.834;6.752;2024-03-23T04:19:00;12.70;;;2.38;;
22644;SDS011;11489;50.834;6.752;2024-03-23T04:21:25;6.40;;;1.60;;
22644;SDS011;11489;50.834;6.752;2024-03-23T04:23:51;7.75;;;1.80;;
22644;SDS011;11489;50.834;6.752;2024-03-23T04:26:17;8.55;;;2.05;;
22644;SDS011;11489;50.834;6.752;2024-03-23T04:28:42;10.32;;;1.88;;
22644;SDS011;11489;50.834;6.752;2024-03-23T04:31:08;10.52;;;2.00;;
22644;SDS011;11489;50.834;6.752;2024-03-23T04:33:34;7.18;;;1.75;;
22644;SDS011;11489;50.834;6.752;2024-03-23T04:36:00;5.60;;;1.50;;
22644;SDS011;11489;50.834;6.752;2024-03-23T04:38:26;6.13;;;1.70;;
22644;SDS011;11489;50.834;6.752;2024-03-23T04:40:55;6.90;;;1.92;;
22644;SDS011;11489;50.834;6.752;2024-03-23T04:43:21;6.82;;;1.92;;
22644;SDS011;11489;50.834;6.752;2024-03-23T04:45:48;10.13;;;2.15;;
22644;SDS011;11489;50.834;6.752;2024-03-23T04:48:13;7.95;;;1.95;;
22644;SDS011;11489;50.834;6.752;2024-03-23T04:50:39;8.68;;;2.10;;
22644;SDS011;11489;50.834;6.752;2024-03-23T04:53:06;9.40;;;1.85;;
22644;SDS011;11489;50.834;6.752;2024-03-23T04:55:32;7.65;;;2.00;;
22644;SDS011;11489;50.834;6.752;2024-03-23T04:57:58;5.10;;;2.03;;
22644;SDS011;11489;50.834;6.752;2024-03-23T05:00:23;8.95;;;1.80;;
22644;SDS011;11489;50.834;6.752;2024-03-23T05:02:50;5.85;;;1.85;;
22644;SDS011;11489;50.834;6.752;2024-03-23T05:05:15;7.82;;;1.95;;
22644;SDS011;11489;50.834;6.752;2024-03-23T05:07:41;9.40;;;2.03;;
22644;SDS011;11489;50.834;6.752;2024-03-23T05:10:08;7.85;;;2.30;;
22644;SDS011;11489;50.834;6.752;2024-03-23T05:12:38;10.88;;;2.10;;
22644;SDS011;11489;50.834;6.752;2024-03-23T05:15:05;9.68;;;2.03;;
22644;SDS011;11489;50.834;6.752;2024-03-23T05:17:31;8.65;;;2.17;;
22644;SDS011;11489;50.834;6.752;2024-03-23T05:19:57;6.70;;;2.00;;
22644;SDS011;11489;50.834;6.752;2024-03-23T05:22:24;12.40;;;2.47;;
22644;SDS011;11489;50.834;6.752;2024-03-23T05:24:50;10.02;;;2.35;;
22644;SDS011;11489;50.834;6.752;2024-03-23T05:27:16;11.55;;;2.15;;
22644;SDS011;11489;50.834;6.752;2024-03-23T05:29:41;8.77;;;2.60;;
22644;SDS011;11489;50.834;6.752;2024-03-23T05:32:07;8.40;;;2.40;;
22644;SDS011;11489;50.834;6.752;2024-03-23T05:34:33;12.27;;;2.08;;
22644;SDS011;11489;50.834;6.752;2024-03-23T05:36:58;9.70;;;2.10;;
22644;SDS011;11489;50.834;6.752;2024-03-23T05:39:24;10.70;;;2.63;;
22644;SDS011;11489;50.834;6.752;2024-03-23T05:41:50;8.68;;;2.20;;
22644;SDS011;11489;50.834;6.752;2024-03-23T05:44:16;7.20;;;2.45;;
22644;SDS011;11489;50.834;6.752;2024-03-23T05:46:42;9.27;;;2.55;;
22644;SDS011;11489;50.834;6.752;2024-03-23T05:49:13;13.57;;;2.30;;
22644;SDS011;11489;50.834;6.752;2024-03-23T05:51:39;11.93;;;2.30;;
22644;SDS011;11489;50.834;6.752;2024-03-23T05:54:04;10.40;;;2.60;;
22644;SDS011;11489;50.834;6.752;2024-03-23T05:56:30;13.85;;;3.17;;
22644;SDS011;11489;50.834;6.752;2024-03-23T05:58:56;11.00;;;2.28;;
22644;SDS011;11489;50.834;6.752;2024-03-23T06:01:22;9.48;;;2.47;;
22644;SDS011;11489;50.834;6.752;2024-03-23T06:03:48;11.35;;;2.90;;
22644;SDS011;11489;50.834;6.752;2024-03-23T06:06:14;13.73;;;2.47;;
22644;SDS011;11489;50.834;6.752;2024-03-23T06:08:39;12.73;;;2.67;;
22644;SDS011;11489;50.834;6.752;2024-03-23T06:11:06;7.75;;;2.22;;
22644;SDS011;11489;50.834;6.752;2024-03-23T06:13:32;10.70;;;2.70;;
22644;SDS011;11489;50.834;6.752;2024-03-23T06:15:59;8.30;;;2.72;;
22644;SDS011;11489;50.834;6.752;2024-03-23T06:18:25;11.88;;;2.78;;
22644;SDS011;11489;50.834;6.752;2024-03-23T06:20:51;8.88;;;2.50;;
22644;SDS011;11489;50.834;6.752;2024-03-23T06:23:17;13.98;;;2.70;;
22644;SDS011;11489;50.834;6.752;2024-03-23T06:25:45;8.18;;;2.20;;
22644;SDS011;11489;50.834;6.752;2024-03-23T06:28:11;7.47;;;2.40;;
22644;SDS011;11489;50.834;6.752;2024-03-23T06:30:36;8.00;;;2.58;;
22644;SDS011;11489;50.834;6.752;2024-03-23T06:33:02;6.38;;;2.72;;
22644;SDS011;11489;50.834;6.752;2024-03-23T06:35:28;10.32;;;2.88;;
22644;SDS011;11489;50.834;6.752;2024-03-23T06:37:54;11.18;;;2.33;;
22644;SDS011;11489;50.834;6.752;2024-03-23T06:40:19;9.05;;;3.03;;
22644;SDS011;11489;50.834;6.752;2024-03-23T06:42:45;12.25;;;3.20;;
22644;SDS011;11489;50.834;6.752;2024-03-23T06:45:11;10.73;;;2.35;;
22644;SDS011;11489;50.834;6.752;2024-03-23T06:47:36;12.63;;;2.47;;
22644;SDS011;11489;50.834;6.752;2024-03-23T06:50:02;11.73;;;2.72;;
22644;SDS011;11489;50.834;6.752;2024-03-23T06:52:29;13.75;;;3.25;;
22644;SDS011;11489;50.834;6.752;2024-03-23T06:54:55;11.77;;;3.50;;
22644;SDS011;11489;50.834;6.752;2024-03-23T06:57:21;9.65;;;3.53;;
22644;SDS011;11489;50.834;6.752;2024-03-23T06:59:47;15.18;;;3.85;;
22644;SDS011;11489;50.834;6.752;2024-03-23T07:02:12;14.23;;;4.50;;
22644;SDS011;11489;50.834;6.752;2024-03-23T07:04:38;11.55;;;3.80;;
22644;SDS011;11489;50.834;6.752;2024-03-23T07:07:06;11.07;;;4.28;;
22644;SDS011;11489;50.834;6.752;2024-03-23T07:09:32;11.77;;;4.40;;
22644;SDS011;11489;50.834;6.752;2024-03-23T07:11:58;14.00;;;5.57;;
22644;SDS011;11489;50.834;6.752;2024-03-23T07:14:24;15.68;;;5.60;;
22644;SDS011;11489;50.834;6.752;2024-03-23T07:16:50;15.43;;;5.80;;
22644;SDS011;11489;50.834;6.752;2024-03-23T07:19:16;14.00;;;5.97;;
22644;SDS011;11489;50.834;6.752;2024-03-23T07:21:42;17.88;;;6.57;;
22644;SDS011;11489;50.834;6.752;2024-03-23T07:24:09;14.10;;;6.55;;
22644;SDS011;11489;50.834;6.752;2024-03-23T07:26:35;20.75;;;7.03;;
22644;SDS011;11489;50.834;6.752;2024-03-23T07:29:00;17.02;;;7.13;;
22644;SDS011;11489;50.834;6.752;2024-03-23T07:31:27;20.00;;;8.02;;
22644;SDS011;11489;50.834;6.752;2024-03-23T07:33:53;22.00;;;8.07;;
22644;SDS011;11489;50.834;6.752;2024-03-23T07:36:18;21.95;;;8.45;;
22644;SDS011;11489;50.834;6.752;2024-03-23T07:38:44;17.98;;;8.48;;
22644;SDS011;11489;50.834;6.752;2024-03-23T07:41:17;21.55;;;8.80;;
22644;SDS011;11489;50.834;6.752;2024-03-23T07:43:44;19.15;;;8.65;;
22644;SDS011;11489;50.834;6.752;2024-03-23T07:46:11;17.00;;;6.82;;
22644;SDS011;11489;50.834;6.752;2024-03-23T07:48:40;11.02;;;4.03;;
22644;SDS011;11489;50.834;6.752;2024-03-23T07:51:20;7.65;;;2.83;;
22644;SDS011;11489;50.834;6.752;2024-03-23T07:53:46;5.85;;;2.40;;
22644;SDS011;11489;50.834;6.752;2024-03-23T07:56:13;5.93;;;2.10;;
22644;SDS011;11489;50.834;6.752;2024-03-23T07:58:46;5.05;;;1.60;;
22644;SDS011;11489;50.834;6.752;2024-03-23T08:01:14;3.22;;;1.40;;
22644;SDS011;11489;50.834;6.752;2024-03-23T08:03:41;4.72;;;1.40;;
22644;SDS011;11489;50.834;6.752;2024-03-23T08:08:50;6.57;;;1.70;;
22644;SDS011;11489;50.834;6.752;2024-03-23T08:11:28;7.38;;;1.70;;
22644;SDS011;11489;50.834;6.752;2024-03-23T08:13:54;4.63;;;1.77;;
22644;SDS011;11489;50.834;6.752;2024-03-23T08:16:20;4.15;;;1.80;;
22644;SDS011;11489;50.834;6.752;2024-03-23T08:18:46;6.53;;;2.63;;
22644;SDS011;11489;50.834;6.752;2024-03-23T08:21:12;6.15;;;2.80;;
22644;SDS011;11489;50.834;6.752;2024-03-23T08:23:38;10.80;;;4.03;;
22644;SDS011;11489;50.834;6.752;2024-03-23T08:26:05;10.68;;;3.83;;
22644;SDS011;11489;50.834;6.752;2024-03-23T08:28:32;9.63;;;3.95;;
22644;SDS011;11489;50.834;6.752;2024-03-23T08:31:00;10.88;;;5.22;;
22644;SDS011;11489;50.834;6.752;2024-03-23T08:33:27;13.73;;;5.85;;
22644;SDS011;11489;50.834;6.752;2024-03-23T08:35:54;12.18;;;6.05;;
22644;SDS011;11489;50.834;6.752;2024-03-23T08:38:23;15.90;;;7.13;;
22644;SDS011;11489;50.834;6.752;2024-03-23T08:40:56;17.02;;;7.70;;
22644;SDS011;11489;50.834;6.752;2024-03-23T08:43:26;19.92;;;8.15;;
22644;SDS011;11489;50.834;6.752;2024-03-23T08:45:52;17.27;;;8.07;;
22644;SDS011;11489;50.834;6.752;2024-03-23T08:48:21;17.13;;;7.35;;
22644;SDS011;11489;50.834;6.752;2024-03-23T08:50:47;18.25;;;7.60;;
22644;SDS011;11489;50.834;6.752;2024-03-23T08:53:23;18.33;;;6.25;;
22644;SDS011;11489;50.834;6.752;2024-03-23T08:55:55;11.63;;;5.80;;
22644;SDS011;11489;50.834;6.752;2024-03-23T08:58:25;15.00;;;5.40;;
22644;SDS011;11489;50.834;6.752;2024-03-23T09:00:51;9.73;;;4.80;;
22644;SDS011;11489;50.834;6.752;2024-03-23T09:03:17;11.40;;;4.68;;
22644;SDS011;11489;50.834;6.752;2024-03-23T09:05:43;13.50;;;4.95;;
22644;SDS011;11489;50.834;6.752;2024-03-23T09:08:09;12.05;;;6.07;;
22644;SDS011;11489;50.834;6.752;2024-03-23T09:10:39;14.38;;;5.15;;
22644;SDS011;11489;50.834;6.752;2024-03-23T09:13:05;11.25;;;4.60;;
22644;SDS011;11489;50.834;6.752;2024-03-23T09:15:32;13.13;;;4.60;;
22644;SDS011;11489;50.834;6.752;2024-03-23T09:17:59;11.02;;;3.85;;
22644;SDS011;11489;50.834;6.752;2024-03-23T09:20:25;8.90;;;3.58;;
22644;SDS011;11489;50.834;6.752;2024-03-23T09:22:51;14.25;;;3.50;;
22644;SDS011;11489;50.834;6.752;2024-03-23T09:25:17;12.60;;;3.33;;
22644;SDS011;11489;50.834;6.752;2024-03-23T09:27:42;13.13;;;3.40;;
22644;SDS011;11489;50.834;6.752;2024-03-23T09:30:10;14.32;;;3.70;;
22644;SDS011;11489;50.834;6.752;2024-03-23T09:32:36;10.50;;;3.53;;
22644;SDS011;11489;50.834;6.752;2024-03-23T09:35:02;9.18;;;2.97;;
22644;SDS011;11489;50.834;6.752;2024-03-23T09:37:28;8.98;;;2.95;;
22644;SDS011;11489;50.834;6.752;2024-03-23T09:39:54;8.88;;;2.85;;
22644;SDS011;11489;50.834;6.752;2024-03-23T09:42:19;10.32;;;3.20;;
22644;SDS011;11489;50.834;6.752;2024-03-23T09:44:45;10.30;;;3.63;;
22644;SDS011;11489;50.834;6.752;2024-03-23T09:47:12;7.28;;;3.00;;
22644;SDS011;11489;50.834;6.752;2024-03-23T09:49:37;9.60;;;3.38;;
22644;SDS011;11489;50.834;6.752;2024-03-23T09:52:03;9.38;;;3.00;;
22644;SDS011;11489;50.834;6.752;2024-03-23T09:54:29;7.13;;;2.80;;
22644;SDS011;11489;50.834;6.752;2024-03-23T09:56:55;8.73;;;3.05;;
22644;SDS011;11489;50.834;6.752;2024-03-23T09:59:21;10.50;;;3.92;;
22644;SDS011;11489;50.834;6.752;2024-03-23T10:01:46;11.48;;;2.90;;
22644;SDS011;11489;50.834;6.752;2024-03-23T10:04:34;9.98;;;2.90;;
22644;SDS011;11489;50.834;6.752;2024-03-23T10:07:14;6.35;;;2.53;;
22644;SDS011;11489;50.834;6.752;2024-03-23T10:09:43;10.88;;;2.85;;
22644;SDS011;11489;50.834;6.752;2024-03-23T10:12:10;5.40;;;2.03;;
22644;SDS011;11489;50.834;6.752;2024-03-23T10:14:37;10.90;;;2.53;;
22644;SDS011;11489;50.834;6.752;2024-03-23T10:17:15;5.10;;;2.03;;
22644;SDS011;11489;50.834;6.752;2024-03-23T10:19:45;6.50;;;1.83;;
22644;SDS011;11489;50.834;6.752;2024-03-23T10:22:18;6.30;;;2.00;;
22644;SDS011;11489;50.834;6.752;2024-03-23T10:24:48;6.40;;;1.60;;
22644;SDS011;11489;50.834;6.752;2024-03-23T10:27:20;3.78;;;1.25;;
22644;SDS011;11489;50.834;6.752;2024-03-23T10:29:47;5.10;;;1.30;;
22644;SDS011;11489;50.834;6.752;2024-03-23T10:32:14;3.65;;;1.20;;
22644;SDS011;11489;50.834;6.752;2024-03-23T10:34:45;5.55;;;1.30;;
22644;SDS011;11489;50.834;6.752;2024-03-23T10:37:11;2.60;;;1.00;;
22644;SDS011;11489;50.834;6.752;2024-03-23T10:39:39;3.25;;;1.38;;
22644;SDS011;11489;50.834;6.752;2024-03-23T10:42:06;3.20;;;1.13;;
22644;SDS011;11489;50.834;6.752;2024-03-23T10:44:33;4.50;;;1.40;;
22644;SDS011;11489;50.834;6.752;2024-03-23T10:47:03;5.25;;;1.35;;
22644;SDS011;11489;50.834;6.752;2024-03-23T10:49:33;4.65;;;1.50;;
22644;SDS011;11489;50.834;6.752;2024-03-23T10:52:00;5.40;;;1.90;;
22644;SDS011;11489;50.834;6.752;2024-03-23T10:54:30;7.53;;;1.60;;
22644;SDS011;11489;50.834;6.752;2024-03-23T10:57:01;8.35;;;2.13;;
22644;SDS011;11489;50.834;6.752;2024-03-23T10:59:32;6.82;;;2.38;;
22644;SDS011;11489;50.834;6.752;2024-03-23T11:01:59;5.32;;;2.03;;
22644;SDS011;11489;50.834;6.752;2024-03-23T11:06:57;7.10;;;2.25;;
22644;SDS011;11489;50.834;6.752;2024-03-23T11:09:39;6.45;;;1.92;;
22644;SDS011;11489;50.834;6.752;2024-03-23T11:14:48;4.30;;;1.92;;
22644;SDS011;11489;50.834;6.752;2024-03-23T11:17:18;4.22;;;1.92;;
22644;SDS011;11489;50.834;6.752;2024-03-23T11:19:46;4.80;;;2.20;;
22644;SDS011;11489;50.834;6.752;2024-03-23T11:25:25;8.18;;;2.83;;
22644;SDS011;11489;50.834;6.752;2024-03-23T11:27:51;5.40;;;2.80;;
22644;SDS011;11489;50.834;6.752;2024-03-23T11:30:19;7.22;;;3.13;;
22644;SDS011;11489;50.834;6.752;2024-03-23T11:32:47;7.53;;;3.00;;
22644;SDS011;11489;50.834;6.752;2024-03-23T11:35:27;8.77;;;2.92;;
22644;SDS011;11489;50.834;6.752;2024-03-23T11:38:04;10.80;;;2.80;;
22644;SDS011;11489;50.834;6.752;2024-03-23T11:40:35;11.55;;;3.58;;
22644;SDS011;11489;50.834;6.752;2024-03-23T11:43:03;7.80;;;2.85;;
22644;SDS011;11489;50.834;6.752;2024-03-23T11:45:43;7.10;;;2.50;;
22644;SDS011;11489;50.834;6.752;2024-03-23T11:48:11;7.93;;;2.97;;
22644;SDS011;11489;50.834;6.752;2024-03-23T11:50:39;9.45;;;3.33;;
22644;SDS011;11489;50.834;6.752;2024-03-23T11:53:09;5.97;;;2.50;;
22644;SDS011;11489;50.834;6.752;2024-03-23T11:58:18;4.95;;;2.40;;
22644;SDS011;11489;50.834;6.752;2024-03-23T12:01:00;5.82;;;2.22;;
22644;SDS011;11489;50.834;6.752;2024-03-23T12:03:28;3.60;;;2.10;;
22644;SDS011;11489;50.834;6.752;2024-03-23T12:05:55;4.57;;;2.20;;
22644;SDS011;11489;50.834;6.752;2024-03-23T12:08:25;6.32;;;2.08;;
22644;SDS011;11489;50.834;6.752;2024-03-23T12:13:36;6.82;;;2.25;;
22644;SDS011;11489;50.834;6.752;2024-03-23T12:18:58;6.30;;;2.30;;
22644;SDS011;11489;50.834;6.752;2024-03-23T12:21:30;8.15;;;2.45;;
22644;SDS011;11489;50.834;6.752;2024-03-23T12:23:56;4.90;;;1.40;;
22644;SDS011;11489;50.834;6.752;2024-03-23T12:26:22;2.40;;;1.00;;
22644;SDS011;11489;50.834;6.752;2024-03-23T12:28:48;2.83;;;1.10;;
22644;SDS011;11489;50.834;6.752;2024-03-23T12:31:14;2.05;;;0.75;;
22644;SDS011;11489;50.834;6.752;2024-03-23T12:33:39;3.90;;;0.80;;
22644;SDS011;11489;50.834;6.752;2024-03-23T12:36:05;4.40;;;1.08;;
22644;SDS011;11489;50.834;6.752;2024-03-23T12:38:31;2.90;;;0.90;;
22644;SDS011;11489;50.834;6.752;2024-03-23T12:40:56;4.68;;;0.90;;
22644;SDS011;11489;50.834;6.752;2024-03-23T12:43:22;2.53;;;0.90;;
22644;SDS011;11489;50.834;6.752;2024-03-23T12:45:48;3.92;;;0.80;;
22644;SDS011;11489;50.834;6.752;2024-03-23T12:48:14;2.40;;;0.80;;
22644;SDS011;11489;50.834;6.752;2024-03-23T12:50:41;4.88;;;1.05;;
22644;SDS011;11489;50.834;6.752;2024-03-23T12:53:06;1.38;;;0.80;;
22644;SDS011;11489;50.834;6.752;2024-03-23T12:55:34;2.10;;;0.80;;
22644;SDS011;11489;50.834;6.752;2024-03-23T12:58:00;2.42;;;1.02;;
22644;SDS011;11489;50.834;6.752;2024-03-23T13:00:26;1.83;;;1.02;;
22644;SDS011;11489;50.834;6.752;2024-03-23T13:02:52;2.78;;;1.20;;
22644;SDS011;11489;50.834;6.752;2024-03-23T13:05:18;4.15;;;1.27;;
22644;SDS011;11489;50.834;6.752;2024-03-23T13:07:44;4.93;;;1.50;;
22644;SDS011;11489;50.834;6.752;2024-03-23T13:10:10;5.38;;;1.48;;
22644;SDS011;11489;50.834;6.752;2024-03-23T13:12:35;3.80;;;1.50;;
22644;SDS011;11489;50.834;6.752;2024-03-23T13:15:01;2.95;;;1.75;;
22644;SDS011;11489;50.834;6.752;2024-03-23T13:17:27;4.15;;;2.08;;
22644;SDS011;11489;50.834;6.752;2024-03-23T13:19:54;3.42;;;2.00;;
22644;SDS011;11489;50.834;6.752;2024-03-23T13:22:21;5.20;;;2.10;;
22644;SDS011;11489;50.834;6.752;2024-03-23T13:24:47;4.85;;;2.30;;
22644;SDS011;11489;50.834;6.752;2024-03-23T13:27:12;4.10;;;2.00;;
22644;SDS011;11489;50.834;6.752;2024-03-23T13:29:38;4.45;;;2.10;;
22644;SDS011;11489;50.834;6.752;2024-03-23T13:32:04;4.82;;;2.40;;
22644;SDS011;11489;50.834;6.752;2024-03-23T13:34:31;4.72;;;2.50;;
22644;SDS011;11489;50.834;6.752;2024-03-23T13:36:58;6.53;;;2.33;;
22644;SDS011;11489;50.834;6.752;2024-03-23T13:39:24;5.85;;;2.85;;
22644;SDS011;11489;50.834;6.752;2024-03-23T13:41:52;4.47;;;2.60;;
22644;SDS011;11489;50.834;6.752;2024-03-23T13:44:20;7.45;;;2.55;;
22644;SDS011;11489;50.834;6.752;2024-03-23T13:46:45;7.00;;;2.08;;
22644;SDS011;11489;50.834;6.752;2024-03-23T13:49:45;5.30;;;2.05;;
22644;SDS011;11489;50.834;6.752;2024-03-23T13:52:05;4.30;;;2.20;;
22644;SDS011;11489;50.834;6.752;2024-03-23T13:54:32;8.45;;;2.42;;
22644;SDS011;11489;50.834;6.752;2024-03-23T13:56:57;3.03;;;1.58;;
22644;SDS011;11489;50.834;6.752;2024-03-23T13:59:23;3.47;;;1.00;;
22644;SDS011;11489;50.834;6.752;2024-03-23T14:01:49;2.00;;;0.98;;
22644;SDS011;11489;50.834;6.752;2024-03-23T14:04:16;2.63;;;1.00;;
22644;SDS011;11489;50.834;6.752;2024-03-23T14:06:42;1.52;;;1.10;;
22644;SDS011;11489;50.834;6.752;2024-03-23T14:09:10;5.95;;;1.92;;
22644;SDS011;11489;50.834;6.752;2024-03-23T14:11:36;2.95;;;1.20;;
22644;SDS011;11489;50.834;6.752;2024-03-23T14:14:02;3.83;;;1.83;;
22644;SDS011;11489;50.834;6.752;2024-03-23T14:16:32;7.18;;;1.60;;
22644;SDS011;11489;50.834;6.752;2024-03-23T14:18:58;5.35;;;1.67;;
22644;SDS011;11489;50.834;6.752;2024-03-23T14:21:24;4.97;;;1.88;;
22644;SDS011;11489;50.834;6.752;2024-03-23T14:23:50;3.53;;;1.58;;
22644;SDS011;11489;50.834;6.752;2024-03-23T14:26:16;3.25;;;1.80;;
22644;SDS011;11489;50.834;6.752;2024-03-23T14:28:41;4.03;;;1.83;;
22644;SDS011;11489;50.834;6.752;2024-03-23T14:31:07;3.70;;;1.80;;
22644;SDS011;11489;50.834;6.752;2024-03-23T14:33:37;3.33;;;1.73;;
22644;SDS011;11489;50.834;6.752;2024-03-23T14:36:04;4.63;;;1.77;;
22644;SDS011;11489;50.834;6.752;2024-03-23T14:38:30;6.43;;;2.30;;
22644;SDS011;11489;50.834;6.752;2024-03-23T14:40:59;3.55;;;1.67;;
22644;SDS011;11489;50.834;6.752;2024-03-23T14:43:26;3.25;;;1.85;;
22644;SDS011;11489;50.834;6.752;2024-03-23T14:48:41;7.78;;;1.88;;
22644;SDS011;11489;50.834;6.752;2024-03-23T14:51:08;3.28;;;2.28;;
22644;SDS011;11489;50.834;6.752;2024-03-23T14:53:35;5.28;;;2.13;;
22644;SDS011;11489;50.834;6.752;2024-03-23T14:56:03;3.03;;;1.13;;
22644;SDS011;11489;50.834;6.752;2024-03-23T15:36:01;6.00;;;1.98;;
22644;SDS011;11489;50.834;6.752;2024-03-23T15:38:27;4.85;;;1.80;;
22644;SDS011;11489;50.834;6.752;2024-03-23T15:40:56;2.40;;;1.58;;
22644;SDS011;11489;50.834;6.752;2024-03-23T15:43:22;3.08;;;1.70;;
22644;SDS011;11489;50.834;6.752;2024-03-23T15:45:57;4.93;;;1.75;;
22644;SDS011;11489;50.834;6.752;2024-03-23T15:48:27;4.00;;;1.58;;
22644;SDS011;11489;50.834;6.752;2024-03-23T15:50:57;3.15;;;1.52;;
22644;SDS011;11489;50.834;6.752;2024-03-23T15:53:24;6.35;;;1.65;;
22644;SDS011;11489;50.834;6.752;2024-03-23T15:55:57;6.38;;;1.67;;
22644;SDS011;11489;50.834;6.752;2024-03-23T15:58:23;4.60;;;2.28;;
22644;SDS011;11489;50.834;6.752;2024-03-23T16:00:59;4.57;;;1.70;;
22644;SDS011;11489;50.834;6.752;2024-03-23T16:03:34;3.15;;;1.50;;
22644;SDS011;11489;50.834;6.752;2024-03-23T16:06:02;2.60;;;1.15;;
22644;SDS011;11489;50.834;6.752;2024-03-23T16:08:46;2.50;;;1.10;;
22644;SDS011;11489;50.834;6.752;2024-03-23T16:11:12;1.85;;;0.55;;
22644;SDS011;11489;50.834;6.752;2024-03-23T16:13:37;0.82;;;0.50;;
22644;SDS011;11489;50.834;6.752;2024-03-23T16:16:05;1.42;;;0.45;;
22644;SDS011;11489;50.834;6.752;2024-03-23T16:18:35;0.60;;;0.40;;
22644;SDS011;11489;50.834;6.752;2024-03-23T16:21:02;0.52;;;0.40;;
22644;SDS011;11489;50.834;6.752;2024-03-23T16:23:31;1.27;;;0.40;;
22644;SDS011;11489;50.834;6.752;2024-03-23T16:25:58;1.48;;;0.80;;
22644;SDS011;11489;50.834;6.752;2024-03-23T16:33:25;1.85;;;1.00;;
22644;SDS011;11489;50.834;6.752;2024-03-23T16:35:58;2.92;;;1.10;;
22644;SDS011;11489;50.834;6.752;2024-03-23T16:38:28;3.00;;;1.10;;